createdAt,value
2018-05-23T00:00:11.135Z,17.60
2018-05-23T00:02:39.155Z,17.50
2018-05-23T00:05:07.360Z,17.40
2018-05-23T00:07:36.459Z,17.40
2018-05-23T00:10:05.196Z,17.30
2018-05-23T00:12:33.226Z,17.30
2018-05-23T00:15:01.346Z,17.30
2018-05-23T00:17:29.305Z,17.30
2018-05-23T00:19:57.175Z,17.20
2018-05-23T00:22:25.495Z,17.20
2018-05-23T00:24:54.568Z,17.20
2018-05-23T00:27:22.944Z,17.10
2018-05-23T00:29:50.791Z,17.20
2018-05-23T00:32:18.673Z,17.10
2018-05-23T00:34:47.141Z,17.10
2018-05-23T00:37:14.998Z,17.10
2018-05-23T00:39:43.487Z,17.20
2018-05-23T00:42:11.762Z,17.10
2018-05-23T00:44:39.640Z,16.90
2018-05-23T00:47:07.784Z,16.90
2018-05-23T00:49:35.766Z,16.80
2018-05-23T00:52:03.601Z,16.80
2018-05-23T00:54:32.526Z,16.90
2018-05-23T00:57:00.381Z,16.90
2018-05-23T00:59:28.364Z,16.90
2018-05-23T01:01:56.329Z,16.90
2018-05-23T01:04:24.432Z,16.90
2018-05-23T01:06:53.422Z,16.70
2018-05-23T01:09:22.072Z,16.70
2018-05-23T01:11:49.942Z,16.60
2018-05-23T01:14:18.022Z,16.60
2018-05-23T01:16:46.179Z,16.60
2018-05-23T01:19:14.377Z,16.60
2018-05-23T01:21:42.630Z,16.60
2018-05-23T01:24:10.841Z,16.60
2018-05-23T01:26:39.600Z,16.50
2018-05-23T01:29:07.824Z,16.50
2018-05-23T01:31:35.731Z,16.40
2018-05-23T01:34:03.811Z,16.20
2018-05-23T01:36:32.092Z,16.20
2018-05-23T01:39:00.371Z,16.10
2018-05-23T01:41:28.636Z,16.20
2018-05-23T01:43:56.511Z,16.20
2018-05-23T01:46:24.810Z,16.20
2018-05-23T01:49:05.352Z,16.20
2018-05-23T01:51:33.321Z,16.20
2018-05-23T01:54:01.178Z,16.20
2018-05-23T01:56:29.055Z,16.20
2018-05-23T01:58:57.013Z,16.20
2018-05-23T02:01:24.870Z,16.10
2018-05-23T02:03:52.741Z,16.10
2018-05-23T02:06:20.913Z,16.10
2018-05-23T02:08:49.006Z,16.10
2018-05-23T02:11:16.747Z,16.10
2018-05-23T02:13:44.619Z,16.20
2018-05-23T02:16:12.893Z,16.10
2018-05-23T02:18:40.964Z,16.10
2018-05-23T02:21:08.985Z,16.10
2018-05-23T02:23:37.208Z,16.00
2018-05-23T02:26:06.392Z,16.00
2018-05-23T02:28:34.269Z,16.00
2018-05-23T02:31:02.351Z,16.00
2018-05-23T02:33:30.309Z,16.00
2018-05-23T02:35:58.485Z,16.00
2018-05-23T02:38:26.849Z,16.00
2018-05-23T02:40:55.109Z,15.90
2018-05-23T02:43:22.888Z,15.90
2018-05-23T02:45:51.197Z,15.90
2018-05-23T02:48:19.462Z,15.80
2018-05-23T02:50:47.434Z,15.80
2018-05-23T02:53:15.591Z,15.80
2018-05-23T02:55:43.866Z,15.70
2018-05-23T02:58:11.763Z,15.80
2018-05-23T03:00:40.835Z,15.80
2018-05-23T03:03:08.717Z,15.80
2018-05-23T03:05:36.653Z,15.80
2018-05-23T03:08:04.526Z,15.90
2018-05-23T03:10:32.412Z,15.90
2018-05-23T03:13:00.256Z,16.00
2018-05-23T03:15:28.155Z,16.10
2018-05-23T03:17:56.914Z,16.10
2018-05-23T03:20:25.090Z,16.10
2018-05-23T03:22:52.961Z,16.10
2018-05-23T03:25:20.843Z,16.10
2018-05-23T03:27:48.882Z,16.20
2018-05-23T03:30:16.552Z,16.10
2018-05-23T03:32:45.755Z,16.10
2018-05-23T03:35:13.731Z,16.20
2018-05-23T03:37:42.371Z,16.30
2018-05-23T03:40:10.483Z,16.20
2018-05-23T03:42:38.359Z,16.30
2018-05-23T03:45:06.228Z,16.30
2018-05-23T03:47:35.001Z,16.30
2018-05-23T03:50:03.323Z,16.30
2018-05-23T03:52:31.882Z,16.30
2018-05-23T03:55:01.205Z,16.40
2018-05-23T03:57:29.190Z,16.40
2018-05-23T04:00:09.070Z,16.40
2018-05-23T04:02:48.712Z,16.50
2018-05-23T04:05:28.362Z,16.60
2018-05-23T04:07:56.317Z,16.70
2018-05-23T04:10:24.444Z,16.70
2018-05-23T04:12:53.305Z,16.90
2018-05-23T04:15:22.532Z,16.90
2018-05-23T04:17:51.077Z,16.90
2018-05-23T04:20:19.032Z,17.00
2018-05-23T04:22:47.249Z,17.10
2018-05-23T04:25:16.360Z,17.20
2018-05-23T04:27:44.692Z,17.30
2018-05-23T04:30:12.718Z,17.20
2018-05-23T04:32:41.433Z,17.40
2018-05-23T04:35:09.532Z,17.40
2018-05-23T04:37:38.050Z,17.60
2018-05-23T04:40:06.483Z,17.60
2018-05-23T04:42:34.542Z,17.80
2018-05-23T04:45:03.076Z,17.80
2018-05-23T04:47:31.479Z,17.80
2018-05-23T04:50:00.203Z,17.90
2018-05-23T04:52:28.468Z,18.00
2018-05-23T04:54:56.467Z,18.00
2018-05-23T04:57:25.639Z,18.10
2018-05-23T04:59:53.704Z,18.10
2018-05-23T05:02:21.992Z,18.20
2018-05-23T05:04:50.574Z,18.20
2018-05-23T05:07:18.574Z,18.30
2018-05-23T05:09:47.970Z,18.30
2018-05-23T05:12:16.976Z,18.30
2018-05-23T05:14:45.401Z,18.30
2018-05-23T05:17:13.975Z,18.30
2018-05-23T05:19:42.168Z,18.40
2018-05-23T05:22:10.352Z,18.50
2018-05-23T05:24:38.807Z,18.60
2018-05-23T05:27:07.107Z,18.70
2018-05-23T05:29:35.118Z,18.80
2018-05-23T05:32:03.639Z,18.90
2018-05-23T05:34:32.247Z,18.90
2018-05-23T05:37:00.595Z,19.00
2018-05-23T05:39:28.685Z,19.10
2018-05-23T05:41:56.931Z,19.20
2018-05-23T05:44:25.271Z,19.30
2018-05-23T05:46:54.297Z,19.50
2018-05-23T05:49:23.106Z,19.50
2018-05-23T05:51:51.121Z,19.60
2018-05-23T05:54:20.060Z,19.80
2018-05-23T05:56:48.290Z,19.70
2018-05-23T05:59:16.535Z,19.70
2018-05-23T06:01:44.685Z,19.80
2018-05-23T06:04:13.261Z,19.90
2018-05-23T06:06:41.654Z,20.00
2018-05-23T06:09:10.144Z,20.00
2018-05-23T06:11:38.308Z,20.10
2018-05-23T06:14:06.653Z,20.30
2018-05-23T06:16:35.280Z,20.60
2018-05-23T06:19:03.462Z,20.70
2018-05-23T06:21:32.920Z,21.00
2018-05-23T06:24:01.225Z,21.00
2018-05-23T06:26:29.879Z,20.80
2018-05-23T06:28:58.742Z,21.00
2018-05-23T06:31:27.995Z,21.00
2018-05-23T06:33:56.681Z,21.10
2018-05-23T06:36:24.804Z,21.30
2018-05-23T06:38:53.328Z,21.50
2018-05-23T06:41:21.211Z,21.80
2018-05-23T06:43:49.182Z,21.90
2018-05-23T06:46:17.762Z,22.10
2018-05-23T06:48:46.140Z,22.70
2018-05-23T06:51:14.216Z,23.20
2018-05-23T06:53:42.532Z,23.80
2018-05-23T06:56:10.857Z,24.20
2018-05-23T06:58:39.308Z,24.40
2018-05-23T07:01:07.827Z,24.90
2018-05-23T07:03:35.686Z,25.20
2018-05-23T07:06:04.120Z,25.40
2018-05-23T07:08:32.327Z,26.00
2018-05-23T07:11:00.467Z,26.50
2018-05-23T07:13:28.693Z,27.10
2018-05-23T07:15:57.056Z,27.40
2018-05-23T07:18:25.197Z,27.70
2018-05-23T07:20:53.514Z,28.10
2018-05-23T07:23:21.589Z,28.20
2018-05-23T07:25:49.950Z,28.60
2018-05-23T07:28:18.141Z,29.00
2018-05-23T07:30:46.264Z,29.40
2018-05-23T07:33:14.686Z,29.60
2018-05-23T07:35:44.105Z,29.50
2018-05-23T07:38:12.517Z,30.00
2018-05-23T07:40:41.171Z,30.30
2018-05-23T07:43:09.583Z,30.00
2018-05-23T07:45:38.012Z,30.30
2018-05-23T07:48:06.268Z,30.80
2018-05-23T07:50:34.477Z,31.20
2018-05-23T07:53:02.686Z,31.80
2018-05-23T07:55:30.818Z,31.70
2018-05-23T07:57:59.329Z,32.10
2018-05-23T08:00:28.495Z,32.10
2018-05-23T08:02:57.924Z,32.10
2018-05-23T08:05:26.989Z,32.20
2018-05-23T08:07:55.298Z,32.20
2018-05-23T08:10:24.351Z,33.60
2018-05-23T08:12:52.752Z,33.60
2018-05-23T08:15:21.927Z,32.50
2018-05-23T08:17:50.114Z,32.40
2018-05-23T08:20:18.519Z,32.70
2018-05-23T08:22:47.778Z,34.10
2018-05-23T08:25:15.765Z,34.10
2018-05-23T08:27:44.033Z,34.80
2018-05-23T08:30:12.359Z,35.60
2018-05-23T08:32:40.361Z,36.40
2018-05-23T08:35:08.658Z,36.80
2018-05-23T08:37:36.867Z,36.90
2018-05-23T08:40:05.053Z,37.30
2018-05-23T08:42:33.368Z,38.10
2018-05-23T08:45:01.567Z,38.00
2018-05-23T08:47:30.686Z,38.00
2018-05-23T08:49:59.879Z,38.00
2018-05-23T08:52:28.217Z,37.60
2018-05-23T08:54:57.091Z,37.70
2018-05-23T08:57:25.175Z,38.20
2018-05-23T08:59:53.354Z,38.50
2018-05-23T09:02:21.354Z,38.90
2018-05-23T09:04:50.240Z,37.10
2018-05-23T09:07:19.431Z,36.90
2018-05-23T09:09:48.302Z,37.20
2018-05-23T09:12:16.484Z,37.20
2018-05-23T09:14:45.654Z,38.70
2018-05-23T09:17:13.949Z,38.80
2018-05-23T09:19:42.402Z,39.00
2018-05-23T09:22:11.889Z,39.20
2018-05-23T09:24:40.197Z,38.60
2018-05-23T09:27:08.874Z,39.30
2018-05-23T09:29:37.200Z,39.50
2018-05-23T09:32:05.946Z,40.20
2018-05-23T09:34:34.498Z,40.60
2018-05-23T09:37:02.498Z,41.70
2018-05-23T09:39:30.666Z,42.20
2018-05-23T09:41:58.759Z,41.60
2018-05-23T09:44:27.028Z,42.10
2018-05-23T09:46:55.546Z,43.10
2018-05-23T09:49:24.763Z,44.10
2018-05-23T09:51:53.273Z,44.10
2018-05-23T09:54:21.451Z,44.40
2018-05-23T09:56:50.018Z,44.30
2018-05-23T09:59:18.259Z,44.10
2018-05-23T10:01:46.290Z,43.30
2018-05-23T10:04:14.661Z,43.20
2018-05-23T10:06:43.041Z,43.70
2018-05-23T10:09:12.174Z,43.40
2018-05-23T10:11:41.479Z,42.70
2018-05-23T10:14:09.713Z,42.70
2018-05-23T10:16:37.911Z,41.80
2018-05-23T10:19:06.881Z,43.60
2018-05-23T10:21:35.025Z,43.50
2018-05-23T10:24:03.721Z,43.60
2018-05-23T10:26:32.272Z,42.90
2018-05-23T10:29:00.391Z,41.80
2018-05-23T10:31:28.716Z,42.30
2018-05-23T10:33:57.160Z,43.00
2018-05-23T10:36:25.157Z,44.50
2018-05-23T10:38:53.508Z,43.60
2018-05-23T10:41:21.767Z,43.00
2018-05-23T10:43:49.995Z,42.90
2018-05-23T10:46:18.109Z,43.10
2018-05-23T10:48:47.127Z,40.50
2018-05-23T10:51:15.488Z,40.50
2018-05-23T10:53:43.597Z,40.40
2018-05-23T10:56:12.613Z,41.60
2018-05-23T10:58:40.718Z,41.60
2018-05-23T11:01:09.568Z,42.30
2018-05-23T11:03:37.542Z,43.60
2018-05-23T11:06:05.547Z,44.00
2018-05-23T11:08:33.626Z,44.50
2018-05-23T11:11:01.810Z,44.90
2018-05-23T11:13:29.966Z,44.70
2018-05-23T11:15:58.486Z,45.90
2018-05-23T11:18:27.340Z,46.50
2018-05-23T11:20:55.563Z,46.40
2018-05-23T11:23:24.245Z,46.20
2018-05-23T11:25:52.526Z,44.50
2018-05-23T11:28:20.949Z,44.50
2018-05-23T11:30:50.358Z,45.40
2018-05-23T11:33:19.501Z,45.40
2018-05-23T11:35:48.665Z,44.50
2018-05-23T11:38:16.877Z,43.80
2018-05-23T11:40:45.732Z,42.40
2018-05-23T11:43:14.239Z,42.50
2018-05-23T11:45:42.507Z,43.40
2018-05-23T11:48:11.471Z,44.60
2018-05-23T11:50:39.692Z,44.60
2018-05-23T11:53:07.717Z,44.70
2018-05-23T11:55:35.981Z,44.50
2018-05-23T11:58:04.165Z,43.10
2018-05-23T12:00:32.869Z,43.10
2018-05-23T12:03:01.934Z,44.20
2018-05-23T12:05:30.056Z,44.10
2018-05-23T12:07:58.590Z,44.60
2018-05-23T12:10:26.784Z,44.90
2018-05-23T12:12:54.847Z,45.20
2018-05-23T12:15:23.669Z,44.30
2018-05-23T12:17:52.298Z,44.60
2018-05-23T12:20:20.705Z,44.50
2018-05-23T12:22:48.979Z,44.30
2018-05-23T12:25:17.496Z,43.20
2018-05-23T12:27:45.607Z,43.50
2018-05-23T12:30:13.941Z,43.40
2018-05-23T12:32:42.245Z,43.60
2018-05-23T12:35:10.658Z,42.70
2018-05-23T12:37:38.857Z,41.90
2018-05-23T12:40:08.299Z,39.80
2018-05-23T12:42:36.516Z,39.80
2018-05-23T12:45:06.429Z,38.60
2018-05-23T12:47:34.806Z,38.20
2018-05-23T12:50:03.819Z,37.10
2018-05-23T12:52:33.147Z,36.70
2018-05-23T12:55:01.677Z,36.60
2018-05-23T12:57:29.650Z,36.40
2018-05-23T12:59:57.861Z,36.50
2018-05-23T13:02:26.197Z,36.30
2018-05-23T13:04:54.172Z,36.80
2018-05-23T13:07:22.612Z,37.80
2018-05-23T13:09:51.026Z,38.70
2018-05-23T13:12:19.152Z,39.90
2018-05-23T13:14:48.617Z,40.40
2018-05-23T13:17:17.189Z,39.50
2018-05-23T13:19:45.424Z,39.10
2018-05-23T13:22:13.837Z,38.00
2018-05-23T13:24:42.318Z,37.50
2018-05-23T13:27:13.373Z,36.80
2018-05-23T13:29:42.411Z,36.30
2018-05-23T13:32:10.927Z,36.30
2018-05-23T13:34:39.136Z,35.80
2018-05-23T13:37:08.129Z,35.00
2018-05-23T13:39:36.981Z,34.50
2018-05-23T13:42:05.065Z,34.50
2018-05-23T13:44:33.138Z,34.90
2018-05-23T13:47:02.177Z,36.20
2018-05-23T13:49:30.506Z,36.20
2018-05-23T13:51:58.845Z,35.30
2018-05-23T13:54:27.060Z,34.40
2018-05-23T13:56:55.276Z,33.50
2018-05-23T13:59:24.373Z,32.50
2018-05-23T14:01:52.969Z,31.80
2018-05-23T14:04:20.775Z,31.20
2018-05-23T14:06:49.763Z,30.70
2018-05-23T14:09:18.276Z,30.50
2018-05-23T14:11:47.402Z,30.30
2018-05-23T14:14:15.810Z,30.30
2018-05-23T14:16:44.583Z,30.30
2018-05-23T14:19:13.246Z,30.00
2018-05-23T14:21:49.702Z,30.10
2018-05-23T14:24:20.002Z,29.40
2018-05-23T14:26:48.645Z,29.30
2018-05-23T14:29:16.814Z,29.30
2018-05-23T14:31:45.427Z,29.30
2018-05-23T14:34:14.831Z,29.10
2018-05-23T14:36:44.271Z,29.10
2018-05-23T14:39:12.307Z,28.90
2018-05-23T14:41:40.254Z,28.80
2018-05-23T14:44:08.334Z,28.60
2018-05-23T14:46:37.103Z,28.70
2018-05-23T14:49:05.089Z,28.60
2018-05-23T14:51:33.119Z,28.50
2018-05-23T14:54:01.343Z,28.30
2018-05-23T14:56:29.294Z,28.30
2018-05-23T14:58:57.342Z,28.10
2018-05-23T15:01:25.439Z,28.10
2018-05-23T15:03:53.422Z,28.30
2018-05-23T15:06:21.505Z,28.40
2018-05-23T15:08:49.550Z,28.50
2018-05-23T15:11:17.630Z,28.30
2018-05-23T15:13:45.695Z,28.30
2018-05-23T15:16:13.679Z,28.40
2018-05-23T15:18:41.742Z,28.50
2018-05-23T15:21:09.822Z,28.70
2018-05-23T15:23:38.590Z,28.90
2018-05-23T15:26:06.670Z,28.90
2018-05-23T15:28:34.734Z,28.80
2018-05-23T15:31:02.626Z,28.60
2018-05-23T15:33:30.670Z,28.80
2018-05-23T15:35:59.261Z,28.80
2018-05-23T15:38:27.229Z,28.70
2018-05-23T15:40:55.102Z,28.80
2018-05-23T15:43:23.680Z,28.60
2018-05-23T15:45:51.790Z,28.50
2018-05-23T15:48:20.546Z,28.80
2018-05-23T15:50:48.382Z,28.70
2018-05-23T15:53:16.477Z,28.70
2018-05-23T15:55:46.078Z,28.60
2018-05-23T15:58:14.062Z,28.70
2018-05-23T16:00:42.014Z,28.50
2018-05-23T16:03:09.902Z,28.30
2018-05-23T16:05:38.878Z,28.50
2018-05-23T16:08:06.887Z,28.50
2018-05-23T16:10:34.910Z,28.20
2018-05-23T16:13:02.894Z,28.30
2018-05-23T16:15:30.958Z,28.30
2018-05-23T16:17:59.038Z,28.30
2018-05-23T16:20:26.991Z,28.30
2018-05-23T16:22:55.054Z,28.20
2018-05-23T16:25:23.230Z,28.20
2018-05-23T16:27:51.311Z,28.30
2018-05-23T16:30:19.389Z,28.10
2018-05-23T16:32:47.358Z,28.10
2018-05-23T16:35:15.310Z,28.00
2018-05-23T16:37:43.512Z,27.90
2018-05-23T16:40:11.582Z,27.90
2018-05-23T16:42:40.558Z,27.80
2018-05-23T16:45:08.638Z,27.70
2018-05-23T16:47:36.526Z,27.70
2018-05-23T16:50:05.279Z,27.30
2018-05-23T16:52:33.152Z,27.20
2018-05-23T16:55:01.214Z,27.10
2018-05-23T16:57:29.071Z,26.90
2018-05-23T16:59:56.968Z,26.70
2018-05-23T17:02:24.862Z,26.50
2018-05-23T17:04:53.615Z,26.20
2018-05-23T17:07:21.470Z,26.20
2018-05-23T17:09:49.631Z,26.10
2018-05-23T17:12:17.822Z,26.10
2018-05-23T17:14:45.822Z,26.10
2018-05-23T17:17:14.479Z,26.00
2018-05-23T17:19:42.430Z,26.00
2018-05-23T17:22:10.414Z,25.80
2018-05-23T17:24:40.014Z,25.40
2018-05-23T17:27:08.302Z,25.40
2018-05-23T17:29:36.431Z,25.40
2018-05-23T17:32:04.430Z,25.30
2018-05-23T17:34:33.231Z,25.20
2018-05-23T17:37:01.294Z,25.20
2018-05-23T17:39:29.421Z,25.10
2018-05-23T17:41:57.502Z,25.10
2018-05-23T17:44:25.728Z,24.90
2018-05-23T17:46:54.398Z,24.90
2018-05-23T17:49:22.478Z,24.80
2018-05-23T17:51:50.429Z,24.80
2018-05-23T17:54:18.402Z,24.70
2018-05-23T17:56:46.383Z,24.70
2018-05-23T17:59:15.054Z,24.60
2018-05-23T18:01:43.982Z,24.60
2018-05-23T18:04:12.639Z,24.50
2018-05-23T18:06:40.719Z,24.40
2018-05-23T18:09:08.671Z,24.40
2018-05-23T18:11:36.861Z,24.40
2018-05-23T18:14:04.821Z,24.40
2018-05-23T18:16:33.007Z,24.20
2018-05-23T18:19:01.054Z,24.10
2018-05-23T18:21:28.941Z,24.10
2018-05-23T18:23:56.894Z,24.00
2018-05-23T18:26:24.957Z,23.80
2018-05-23T18:28:52.830Z,23.70
2018-05-23T18:31:20.895Z,23.60
2018-05-23T18:33:48.973Z,23.60
2018-05-23T18:36:17.261Z,23.50
2018-05-23T18:38:45.933Z,23.20
2018-05-23T18:41:14.114Z,23.10
2018-05-23T18:43:42.145Z,23.10
2018-05-23T18:46:10.254Z,23.00
2018-05-23T18:48:38.430Z,22.80
2018-05-23T18:51:07.126Z,22.70
2018-05-23T18:53:35.162Z,22.70
2018-05-23T18:56:03.230Z,22.60
2018-05-23T18:58:31.310Z,22.50
2018-05-23T19:00:59.502Z,22.40
2018-05-23T19:03:27.358Z,22.40
2018-05-23T19:05:55.298Z,22.40
2018-05-23T19:08:23.294Z,22.30
2018-05-23T19:10:51.287Z,22.30
2018-05-23T19:13:19.902Z,22.10
2018-05-23T19:15:47.822Z,22.10
2018-05-23T19:18:16.043Z,22.10
2018-05-23T19:20:45.919Z,22.10
2018-05-23T19:23:13.870Z,22.10
2018-05-23T19:25:41.950Z,21.90
2018-05-23T19:28:09.825Z,21.90
2018-05-23T19:30:38.494Z,21.90
2018-05-23T19:33:06.574Z,21.90
2018-05-23T19:35:34.638Z,21.90
2018-05-23T19:38:02.527Z,21.80
2018-05-23T19:40:31.422Z,21.70
2018-05-23T19:43:00.173Z,21.70
2018-05-23T19:45:29.070Z,21.60
2018-05-23T19:47:57.151Z,21.70
2018-05-23T19:50:26.798Z,21.50
2018-05-23T19:52:54.901Z,21.50
2018-05-23T19:55:22.798Z,21.40
2018-05-23T19:57:51.695Z,21.20
2018-05-23T20:00:19.567Z,21.20
2018-05-23T20:02:47.615Z,21.20
2018-05-23T20:05:15.703Z,21.20
2018-05-23T20:07:43.778Z,21.10
2018-05-23T20:10:14.449Z,21.00
2018-05-23T20:12:44.334Z,21.00
2018-05-23T20:15:12.959Z,20.90
2018-05-23T20:17:43.950Z,20.90
2018-05-23T20:20:12.942Z,20.90
2018-05-23T20:22:41.523Z,20.90
2018-05-23T20:25:09.677Z,20.90
2018-05-23T20:27:40.786Z,20.80
2018-05-23T20:30:10.334Z,20.70
2018-05-23T20:32:40.174Z,20.70
2018-05-23T20:35:08.212Z,20.60
2018-05-23T20:37:37.711Z,20.50
2018-05-23T20:40:07.552Z,20.40
2018-05-23T20:42:37.520Z,20.40
2018-05-23T20:45:06.319Z,20.30
2018-05-23T20:47:35.461Z,20.30
2018-05-23T20:50:04.503Z,20.30
2018-05-23T20:52:32.800Z,20.20
2018-05-23T20:55:02.031Z,20.30
2018-05-23T20:57:31.215Z,20.30
2018-05-23T21:00:04.582Z,20.30
2018-05-23T21:02:36.015Z,20.10
2018-05-23T21:05:05.046Z,20.00
2018-05-23T21:07:35.742Z,20.10
2018-05-23T21:10:06.430Z,20.00
2018-05-23T21:12:38.479Z,20.00
2018-05-23T21:15:14.798Z,19.90
2018-05-23T21:17:45.296Z,19.90
2018-05-23T21:20:15.855Z,19.80
2018-05-23T21:25:23.085Z,19.80
2018-05-23T21:27:54.443Z,19.80
2018-05-23T21:30:27.982Z,19.80
2018-05-23T21:33:01.381Z,19.80
2018-05-23T21:35:36.535Z,19.70
2018-05-23T21:38:05.758Z,19.80
2018-05-23T21:40:34.702Z,19.80
2018-05-23T21:43:04.382Z,19.70
2018-05-23T21:45:35.913Z,19.70
2018-05-23T21:48:06.726Z,19.70
2018-05-23T21:50:35.158Z,19.70
2018-05-23T21:53:05.202Z,19.70
2018-05-23T21:55:34.594Z,19.70
2018-05-23T21:58:02.670Z,19.60
2018-05-23T22:00:30.702Z,19.60
2018-05-23T22:02:58.704Z,19.50
2018-05-23T22:05:26.710Z,19.40
2018-05-23T22:07:58.043Z,19.40
2018-05-23T22:10:26.151Z,19.40
2018-05-23T22:12:55.990Z,19.30
2018-05-23T22:15:24.574Z,19.20
2018-05-23T22:17:53.221Z,19.20
2018-05-23T22:20:21.925Z,19.10
2018-05-23T22:22:50.190Z,19.10
2018-05-23T22:25:18.099Z,19.10
2018-05-23T22:27:46.030Z,19.10
2018-05-23T22:30:13.897Z,19.10
2018-05-23T22:32:41.854Z,19.00
2018-05-23T22:35:09.709Z,18.90
2018-05-23T22:37:38.617Z,19.00
2018-05-23T22:40:06.815Z,18.90
2018-05-23T22:42:35.475Z,18.80
2018-05-23T22:45:03.434Z,18.80
2018-05-23T22:47:31.313Z,18.70
2018-05-23T22:49:59.176Z,18.70
2018-05-23T22:52:27.054Z,18.70
2018-05-23T22:54:54.910Z,18.70
2018-05-23T22:57:22.710Z,18.60
2018-05-23T22:59:51.794Z,18.60
2018-05-23T23:02:20.686Z,18.60
2018-05-23T23:04:49.643Z,18.50
2018-05-23T23:07:17.523Z,18.40
2018-05-23T23:09:45.475Z,18.40
2018-05-23T23:12:13.764Z,18.30
2018-05-23T23:14:41.827Z,18.30
2018-05-23T23:17:09.924Z,18.20
2018-05-23T23:19:37.768Z,18.20
2018-05-23T23:22:05.835Z,18.10
2018-05-23T23:24:34.137Z,18.00
2018-05-23T23:27:02.907Z,18.10
2018-05-23T23:29:31.003Z,18.00
2018-05-23T23:31:59.868Z,17.80
2018-05-23T23:34:27.868Z,17.80
2018-05-23T23:36:56.711Z,17.80
2018-05-23T23:39:25.230Z,17.80
2018-05-23T23:41:54.106Z,17.70
2018-05-23T23:44:22.051Z,17.70
2018-05-23T23:46:50.551Z,17.70
2018-05-23T23:49:18.403Z,17.70
2018-05-23T23:51:46.269Z,17.70
2018-05-23T23:54:14.058Z,17.60
2018-05-23T23:56:41.916Z,17.50
2018-05-23T23:59:10.076Z,17.50
